Time;durP1;ratioP1;P1;durP2;ratioP2;P2;SDS_P1;SDS_P2;PMS_P1;PMS_P2;Temp;Humidity;BMP_temperature;BMP_pressure;BME280_temperature;BME280_humidity;BME280_pressure;Samples;Min_cycle;Max_cycle;Signal;HPM_P1;HPM_P2
2022/06/10 00:01:42;;;;;;;13.73;3.97;;;14.10;99.90;;;;;;5075067;28;20040;-84
2022/06/10 00:04:07;;;;;;;9.52;3.10;;;14.00;99.90;;;;;;5057818;28;20516;-83
2022/06/10 00:06:33;;;;;;;12.40;4.13;;;13.90;99.90;;;;;;5074515;28;20032;-83
2022/06/10 00:08:58;;;;;;;12.90;3.40;;;14.00;99.90;;;;;;5074543;28;20109;-83
2022/06/10 00:11:24;;;;;;;13.20;4.18;;;13.90;99.90;;;;;;5073953;28;20039;-84
2022/06/10 00:13:50;;;;;;;10.70;3.13;;;14.00;99.90;;;;;;5058015;28;20126;-83
2022/06/10 00:16:19;;;;;;;8.35;3.05;;;13.90;99.90;;;;;;5074536;28;20454;-83
2022/06/10 00:18:45;;;;;;;11.93;3.83;;;13.90;99.90;;;;;;5057707;28;20085;-83
2022/06/10 00:21:14;;;;;;;9.18;3.20;;;13.90;99.90;;;;;;5073933;28;20127;-83
2022/06/10 00:23:40;;;;;;;11.50;3.78;;;13.80;99.90;;;;;;5074523;28;20451;-83
2022/06/10 00:26:06;;;;;;;15.77;3.45;;;13.80;99.90;;;;;;5057466;28;20557;-83
2022/06/10 00:28:32;;;;;;;10.75;3.78;;;13.80;99.90;;;;;;5074299;28;20038;-82
2022/06/10 00:30:58;;;;;;;8.95;3.30;;;13.80;99.90;;;;;;5092193;28;20073;-83
2022/06/10 00:33:24;;;;;;;10.68;2.92;;;13.70;99.90;;;;;;5074058;28;20408;-82
2022/06/10 00:35:50;;;;;;;11.50;3.75;;;13.70;99.90;;;;;;5074306;28;20043;-83
2022/06/10 00:38:16;;;;;;;9.38;2.67;;;13.70;99.90;;;;;;5074217;28;20569;-83
2022/06/10 00:40:51;;;;;;;10.85;3.33;;;13.70;99.90;;;;;;5073288;28;20082;-83
2022/06/10 00:43:22;;;;;;;10.07;3.60;;;13.60;99.90;;;;;;5057377;28;20043;-83
2022/06/10 00:45:54;;;;;;;11.65;3.75;;;13.60;99.90;;;;;;5074059;28;20047;-83
2022/06/10 00:48:47;;;;;;;7.80;2.97;;;13.70;99.90;;;;;;5057196;28;20157;-83
2022/06/10 00:51:29;;;;;;;10.93;2.97;;;13.60;99.90;;;;;;5057121;28;20489;-83
2022/06/10 00:54:23;;;;;;;12.20;3.10;;;13.50;99.90;;;;;;5057311;28;20040;-83
2022/06/10 00:56:57;;;;;;;8.25;3.10;;;13.50;99.90;;;;;;5056419;28;20293;-82
2022/06/10 00:59:29;;;;;;;11.05;4.07;;;13.50;99.90;;;;;;5072941;28;20044;-82
2022/06/10 01:01:58;;;;;;;10.02;2.85;;;13.50;99.90;;;;;;5073919;28;20056;-83
2022/06/10 01:04:26;;;;;;;8.80;2.95;;;13.50;99.90;;;;;;5056555;28;20040;-82
2022/06/10 01:06:51;;;;;;;11.65;2.88;;;13.40;99.90;;;;;;5056957;28;20576;-83
2022/06/10 01:09:17;;;;;;;12.20;4.03;;;13.40;99.90;;;;;;5073260;28;20044;-83
2022/06/10 01:12:08;;;;;;;14.52;3.90;;;13.40;99.90;;;;;;5056782;28;20088;-82
2022/06/10 01:15:07;;;;;;;10.15;2.80;;;13.50;99.90;;;;;;5074010;28;20078;-82
2022/06/10 01:17:52;;;;;;;9.18;2.85;;;13.40;99.90;;;;;;4976376;28;20046;-83
2022/06/10 01:20:23;;;;;;;9.52;3.28;;;13.30;99.90;;;;;;4976619;28;20049;-82
2022/06/10 01:23:20;;;;;;;9.63;2.88;;;13.30;99.90;;;;;;4993157;28;20053;-82
2022/06/10 01:25:57;;;;;;;10.38;3.08;;;13.30;99.90;;;;;;4976639;28;20053;-82
2022/06/10 01:28:53;;;;;;;11.93;4.13;;;13.20;99.90;;;;;;4993161;28;20420;-82
2022/06/10 01:31:39;;;;;;;11.23;3.80;;;13.30;99.90;;;;;;4976444;28;20171;-82
2022/06/10 01:34:46;;;;;;;12.02;3.03;;;13.30;99.90;;;;;;4992793;28;20045;-82
2022/06/10 01:37:24;;;;;;;10.90;3.13;;;13.20;99.90;;;;;;4977131;28;20125;-82
2022/06/10 01:40:14;;;;;;;9.20;3.08;;;13.20;99.90;;;;;;5003871;28;20561;-81
2022/06/10 01:42:55;;;;;;;10.60;3.40;;;13.10;99.90;;;;;;4991840;28;20112;-82
2022/06/10 01:45:39;;;;;;;13.35;3.90;;;13.20;99.90;;;;;;4993057;28;20446;-82
2022/06/10 01:48:36;;;;;;;11.25;3.42;;;13.20;99.90;;;;;;4992572;28;20057;-82
2022/06/10 01:51:23;;;;;;;10.98;3.92;;;13.20;99.90;;;;;;4975690;28;20053;-82
2022/06/10 01:54:02;;;;;;;11.60;3.40;;;13.30;99.90;;;;;;5018873;28;20052;-82
2022/06/10 01:56:39;;;;;;;12.80;3.50;;;13.20;99.90;;;;;;5073141;28;20051;-82
2022/06/10 01:59:37;;;;;;;13.90;3.25;;;13.20;99.90;;;;;;5073161;28;20044;-82
2022/06/10 02:02:09;;;;;;;11.65;3.10;;;13.20;99.90;;;;;;5073354;28;20044;-82
2022/06/10 02:04:40;;;;;;;11.82;3.25;;;13.20;99.90;;;;;;5056616;28;20143;-82
2022/06/10 02:07:13;;;;;;;8.60;3.20;;;13.20;99.90;;;;;;5056865;28;20508;-82
2022/06/10 02:09:54;;;;;;;;;;;13.10;99.90;;;;;;5057644;28;20085;-82
2022/06/10 02:12:27;;;;;;;9.45;2.70;;;13.10;99.90;;;;;;5060329;28;20376;-82
2022/06/10 02:14:58;;;;;;;12.52;3.85;;;13.10;99.90;;;;;;5077084;28;20488;-82
2022/06/10 02:17:26;;;;;;;8.95;3.08;;;13.00;99.90;;;;;;5076530;28;20044;-82
2022/06/10 02:19:58;;;;;;;12.32;4.10;;;13.10;99.90;;;;;;5076128;28;20089;-82
2022/06/10 02:22:39;;;;;;;11.73;3.30;;;13.20;99.90;;;;;;5076816;28;20047;-82
2022/06/10 02:25:10;;;;;;;10.57;2.55;;;13.10;99.90;;;;;;5076344;28;20036;-82
2022/06/10 02:27:40;;;;;;;13.70;4.10;;;13.10;99.90;;;;;;5060036;28;20036;-82
2022/06/10 02:30:11;;;;;;;11.30;3.92;;;13.20;99.90;;;;;;5076236;28;20599;-82
2022/06/10 02:32:39;;;;;;;10.60;3.53;;;13.20;99.90;;;;;;5059621;28;20063;-82
2022/06/10 02:35:07;;;;;;;12.40;3.40;;;13.10;99.90;;;;;;5060205;28;20190;-82
2022/06/10 02:38:03;;;;;;;10.65;4.35;;;13.10;99.90;;;;;;5076434;28;20047;-82
2022/06/10 02:40:39;;;;;;;11.50;3.20;;;13.20;99.90;;;;;;5075795;28;20040;-82
2022/06/10 02:43:19;;;;;;;8.27;2.90;;;13.10;99.90;;;;;;5076482;28;20534;-82
2022/06/10 02:46:11;;;;;;;11.13;3.33;;;13.10;99.90;;;;;;5059680;28;20078;-82
2022/06/10 02:48:40;;;;;;;12.48;4.43;;;13.10;99.90;;;;;;5076189;28;20088;-82
2022/06/10 02:51:05;;;;;;;12.43;3.35;;;13.10;99.90;;;;;;5075520;28;20493;-82
2022/06/10 02:53:31;;;;;;;11.73;3.83;;;13.00;99.90;;;;;;5075777;28;20093;-82
2022/06/10 02:55:57;;;;;;;10.82;4.43;;;13.00;99.90;;;;;;5076104;28;20040;-82
2022/06/10 03:01:33;;;;;;;10.27;3.83;;;13.00;99.90;;;;;;5075310;28;20040;-82
2022/06/10 03:04:20;;;;;;;12.52;4.70;;;13.00;99.90;;;;;;5075810;28;20079;-82
2022/06/10 03:07:18;;;;;;;13.18;5.20;;;13.00;99.90;;;;;;5094241;28;20036;-82
2022/06/10 03:10:08;;;;;;;8.75;3.42;;;13.00;99.90;;;;;;5075103;28;20093;-83
2022/06/10 03:12:45;;;;;;;11.15;4.00;;;13.00;99.90;;;;;;5059176;28;20059;-82
2022/06/10 03:15:47;;;;;;;9.75;3.72;;;12.90;99.90;;;;;;5076022;28;20388;-82
2022/06/10 03:18:19;;;;;;;12.77;4.57;;;12.90;99.90;;;;;;5075956;28;20046;-82
2022/06/10 03:21:09;;;;;;;10.40;3.63;;;12.90;99.90;;;;;;5074561;28;20400;-82
2022/06/10 03:23:38;;;;;;;11.57;3.78;;;12.90;99.90;;;;;;5075424;28;20051;-82
2022/06/10 03:26:25;;;;;;;14.70;4.85;;;12.90;99.90;;;;;;5075803;28;20401;-83
2022/06/10 03:29:00;;;;;;;9.85;3.67;;;12.90;99.90;;;;;;5075649;28;20048;-83
2022/06/10 03:31:34;;;;;;;12.23;4.45;;;12.90;99.90;;;;;;5075189;28;20043;-82
2022/06/10 03:34:12;;;;;;;13.15;4.65;;;12.90;99.90;;;;;;5075374;28;20043;-82
2022/06/10 03:36:38;;;;;;;13.23;3.55;;;12.90;99.90;;;;;;5075283;28;20044;-82
2022/06/10 03:39:06;;;;;;;13.88;5.28;;;12.90;99.90;;;;;;5063300;28;20065;-82
2022/06/10 03:41:41;;;;;;;12.80;3.85;;;12.90;99.90;;;;;;5048635;28;20036;-82
2022/06/10 03:44:14;;;;;;;11.57;4.13;;;12.90;99.90;;;;;;5061790;28;20042;-82
2022/06/10 03:46:44;;;;;;;13.77;4.50;;;12.90;99.90;;;;;;5066393;28;20439;-82
2022/06/10 03:49:13;;;;;;;16.40;6.65;;;12.80;99.90;;;;;;5058227;28;20028;-82
2022/06/10 03:51:40;;;;;;;8.95;4.32;;;12.80;99.90;;;;;;5075159;28;20370;-82
2022/06/10 03:54:05;;;;;;;10.65;4.07;;;12.80;99.90;;;;;;5074595;28;20040;-82
2022/06/10 03:56:31;;;;;;;10.25;3.75;;;12.80;99.90;;;;;;5058075;28;20040;-83
2022/06/10 03:58:58;;;;;;;12.65;5.00;;;12.80;99.90;;;;;;5074808;28;20043;-83
2022/06/10 04:01:24;;;;;;;11.38;4.10;;;12.90;99.90;;;;;;5074234;28;20044;-82
2022/06/10 04:03:49;;;;;;;11.02;3.80;;;12.90;99.90;;;;;;5074790;28;20067;-82
2022/06/10 04:06:19;;;;;;;16.52;5.20;;;12.90;99.90;;;;;;5074560;28;20071;-82
2022/06/10 04:08:45;;;;;;;12.75;4.85;;;12.90;99.90;;;;;;5057696;28;20039;-82
2022/06/10 04:11:10;;;;;;;13.25;4.40;;;12.90;99.90;;;;;;5074260;28;20028;-82
2022/06/10 04:13:36;;;;;;;12.18;4.13;;;12.90;99.90;;;;;;5074660;28;20101;-82
2022/06/10 04:16:02;;;;;;;11.35;5.45;;;12.90;99.90;;;;;;5057571;28;20097;-82
2022/06/10 04:18:28;;;;;;;10.88;4.57;;;12.90;99.90;;;;;;5058169;28;20443;-82
2022/06/10 04:20:54;;;;;;;11.43;5.45;;;13.00;99.90;;;;;;5073960;28;20100;-82
2022/06/10 04:23:20;;;;;;;10.73;4.03;;;13.00;99.90;;;;;;5057481;28;20040;-82
2022/06/10 04:25:46;;;;;;;13.68;4.50;;;13.00;99.90;;;;;;5057720;28;20489;-82
2022/06/10 04:28:13;;;;;;;11.30;4.60;;;13.00;99.90;;;;;;5074146;28;20055;-82
2022/06/10 04:30:42;;;;;;;12.68;4.50;;;13.00;99.90;;;;;;5057138;28;20070;-82
2022/06/10 04:33:08;;;;;;;12.50;4.78;;;13.00;99.90;;;;;;5057608;28;20036;-82
2022/06/10 04:35:35;;;;;;;12.52;6.18;;;13.00;99.90;;;;;;5057285;28;20503;-82
2022/06/10 04:38:01;;;;;;;10.98;5.13;;;13.10;99.90;;;;;;5073493;28;20508;-82
2022/06/10 04:40:30;;;;;;;13.57;5.20;;;13.10;99.90;;;;;;5073727;28;20130;-83
2022/06/10 04:42:58;;;;;;;11.85;5.57;;;13.10;99.90;;;;;;5074187;28;20538;-82
2022/06/10 04:45:27;;;;;;;13.80;5.28;;;13.20;99.90;;;;;;5073590;28;20567;-82
2022/06/10 04:47:54;;;;;;;15.13;6.57;;;13.20;99.90;;;;;;5073996;28;20036;-82
2022/06/10 04:50:22;;;;;;;14.60;6.03;;;13.30;99.90;;;;;;5073541;28;20043;-82
2022/06/10 04:52:47;;;;;;;12.45;5.30;;;13.30;99.90;;;;;;5073775;28;20090;-82
2022/06/10 04:55:13;;;;;;;12.55;5.40;;;13.30;99.90;;;;;;5073937;28;20039;-82
2022/06/10 04:57:39;;;;;;;13.93;5.47;;;13.30;99.90;;;;;;5074060;28;20131;-82
2022/06/10 05:00:10;;;;;;;12.05;5.75;;;13.40;99.90;;;;;;5056480;28;20050;-82
2022/06/10 05:02:35;;;;;;;14.02;6.85;;;13.40;99.90;;;;;;5073752;28;20082;-82
2022/06/10 05:05:02;;;;;;;12.27;5.72;;;13.50;99.90;;;;;;5073771;28;20071;-83
2022/06/10 05:07:28;;;;;;;14.50;7.43;;;13.60;99.90;;;;;;5073339;28;20416;-82
2022/06/10 05:09:53;;;;;;;14.07;5.88;;;13.60;99.90;;;;;;5056504;28;20040;-82
2022/06/10 05:12:19;;;;;;;15.13;7.65;;;13.70;99.90;;;;;;5073665;28;20051;-82
2022/06/10 05:14:44;;;;;;;14.05;6.03;;;13.80;99.90;;;;;;5073358;28;20040;-82
2022/06/10 05:17:10;;;;;;;14.32;7.25;;;13.90;99.90;;;;;;5073506;28;20043;-82
2022/06/10 05:19:37;;;;;;;15.32;5.90;;;13.90;99.90;;;;;;5056547;28;20040;-82
2022/06/10 05:22:03;;;;;;;13.35;6.32;;;14.00;99.90;;;;;;5073692;28;20047;-83
2022/06/10 05:24:28;;;;;;;13.60;6.40;;;14.10;99.90;;;;;;5073237;28;20039;-82
2022/06/10 05:26:54;;;;;;;13.15;7.28;;;14.10;99.90;;;;;;5056979;28;20040;-83
2022/06/10 05:29:19;;;;;;;13.30;5.88;;;14.20;99.90;;;;;;5073238;28;20040;-82
2022/06/10 05:31:45;;;;;;;16.73;7.13;;;14.30;99.90;;;;;;5056494;28;20048;-82
2022/06/10 05:36:55;;;;;;;14.75;5.55;;;14.60;99.90;;;;;;5073258;28;20098;-83
2022/06/10 05:39:20;;;;;;;15.30;6.72;;;14.80;99.90;;;;;;5056126;28;20075;-82
2022/06/10 05:44:34;;;;;;;13.43;5.30;;;15.00;99.90;;;;;;5074437;28;20048;-82
2022/06/10 05:47:00;;;;;;;15.57;6.00;;;15.10;99.90;;;;;;5077487;28;20119;-82
2022/06/10 05:49:28;;;;;;;14.38;5.60;;;15.10;99.90;;;;;;5077292;28;20036;-82
2022/06/10 05:51:53;;;;;;;12.13;5.25;;;15.00;99.90;;;;;;5060282;28;20036;-83
2022/06/10 05:54:19;;;;;;;13.95;6.10;;;15.00;99.90;;;;;;5077677;28;20396;-83
2022/06/10 05:56:45;;;;;;;15.50;5.50;;;14.90;99.90;;;;;;5077320;28;20484;-83
2022/06/10 05:59:12;;;;;;;9.88;4.70;;;14.90;99.90;;;;;;5076521;28;20040;-83
2022/06/10 06:01:38;;;;;;;15.90;6.22;;;14.90;99.90;;;;;;5077214;28;20040;-82
2022/06/10 06:04:04;;;;;;;14.05;5.75;;;14.90;99.90;;;;;;5077144;28;20072;-82
2022/06/10 06:06:29;;;;;;;14.60;5.13;;;15.00;99.90;;;;;;5060217;28;20081;-82
2022/06/10 06:08:55;;;;;;;15.88;5.78;;;15.00;99.90;;;;;;5059998;28;20036;-83
2022/06/10 06:11:21;;;;;;;14.23;6.25;;;15.00;99.90;;;;;;5060023;28;20063;-82
2022/06/10 06:13:46;;;;;;;13.25;5.35;;;15.00;99.90;;;;;;5077216;28;20036;-82
2022/06/10 06:16:16;;;;;;;15.13;5.93;;;15.00;99.90;;;;;;5076486;28;20576;-82
2022/06/10 06:18:42;;;;;;;13.10;5.20;;;15.00;99.90;;;;;;5076866;28;20036;-82
2022/06/10 06:21:07;;;;;;;16.95;5.95;;;15.00;99.90;;;;;;5076301;28;20054;-82
2022/06/10 06:23:33;;;;;;;11.98;4.88;;;15.10;99.90;;;;;;5076645;28;20044;-82
2022/06/10 06:25:59;;;;;;;16.10;6.45;;;15.10;99.90;;;;;;5076957;28;20036;-83
2022/06/10 06:28:26;;;;;;;12.82;4.68;;;15.10;99.90;;;;;;5076898;28;20038;-83
2022/06/10 06:30:51;;;;;;;12.70;4.68;;;15.10;99.90;;;;;;5059183;28;20123;-83
2022/06/10 06:33:17;;;;;;;14.70;5.97;;;15.20;99.90;;;;;;5059881;28;20124;-82
2022/06/10 06:35:49;;;;;;;13.90;5.07;;;15.30;99.90;;;;;;5076241;28;20475;-83
2022/06/10 06:38:14;;;;;;;14.63;4.63;;;15.30;99.90;;;;;;5076484;28;20461;-82
2022/06/10 06:40:42;;;;;;;10.10;4.57;;;15.20;99.90;;;;;;5076258;28;20309;-83
2022/06/10 06:43:08;;;;;;;12.48;4.88;;;15.20;99.90;;;;;;5074849;28;20047;-83
2022/06/10 06:45:34;;;;;;;12.27;5.00;;;15.30;99.90;;;;;;5055211;28;20033;-83
2022/06/10 06:48:01;;;;;;;13.80;5.35;;;15.40;99.90;;;;;;5076325;28;20409;-83
2022/06/10 06:50:29;;;;;;;13.85;5.05;;;15.50;99.90;;;;;;5075875;28;20516;-83
2022/06/10 06:52:55;;;;;;;13.65;5.20;;;15.60;99.90;;;;;;5075800;28;20119;-83
2022/06/10 06:55:20;;;;;;;13.25;4.63;;;15.60;99.90;;;;;;5075472;28;20123;-83
2022/06/10 06:57:47;;;;;;;14.45;5.93;;;15.50;99.90;;;;;;5058956;28;20489;-83
2022/06/10 07:00:15;;;;;;;15.15;6.43;;;15.50;99.90;;;;;;5058487;28;20392;-83
2022/06/10 07:02:41;;;;;;;17.88;6.85;;;15.50;99.90;;;;;;5076172;28;20239;-83
2022/06/10 07:05:07;;;;;;;15.02;6.75;;;15.40;99.90;;;;;;5075923;28;20551;-83
2022/06/10 07:07:33;;;;;;;16.23;7.15;;;15.40;99.90;;;;;;5050063;28;20501;-83
2022/06/10 07:09:59;;;;;;;15.20;5.65;;;15.40;99.90;;;;;;5066397;28;20035;-83
2022/06/10 07:12:25;;;;;;;17.27;5.85;;;15.40;99.90;;;;;;5056152;28;20119;-82
2022/06/10 07:14:50;;;;;;;14.32;7.50;;;15.40;99.90;;;;;;5055498;28;20040;-82
2022/06/10 07:17:17;;;;;;;17.70;7.63;;;15.50;99.90;;;;;;5055905;28;20102;-82
2022/06/10 07:19:43;;;;;;;17.58;7.43;;;15.50;99.90;;;;;;5055066;28;20066;-82
2022/06/10 07:22:09;;;;;;;13.85;8.32;;;15.60;99.90;;;;;;5055370;28;20040;-83
2022/06/10 07:24:35;;;;;;;14.90;8.13;;;15.60;99.90;;;;;;5038802;28;20082;-82
2022/06/10 07:27:00;;;;;;;15.35;6.90;;;15.60;99.90;;;;;;5055389;28;20493;-83
2022/06/10 07:29:27;;;;;;;14.80;8.93;;;15.60;99.90;;;;;;5054751;28;20079;-83
2022/06/10 07:31:53;;;;;;;14.98;8.05;;;15.70;99.90;;;;;;5036975;28;20075;-82
2022/06/10 07:34:19;;;;;;;16.20;8.13;;;15.70;99.90;;;;;;5053172;28;20523;-83
2022/06/10 07:36:45;;;;;;;15.18;7.03;;;15.80;99.90;;;;;;5036439;28;20123;-82
2022/06/10 07:39:11;;;;;;;17.40;7.93;;;15.90;99.90;;;;;;5052857;28;20036;-82
2022/06/10 07:42:09;;;;;;;13.68;6.75;;;16.00;99.90;;;;;;5052986;28;20116;-84
2022/06/10 07:44:37;;;;;;;16.10;7.10;;;16.10;99.90;;;;;;5049917;28;20071;-83
2022/06/10 07:47:11;;;;;;;17.90;6.50;;;16.20;99.90;;;;;;5054603;28;20029;-83
2022/06/10 07:49:38;;;;;;;15.18;6.50;;;16.20;99.90;;;;;;5054995;28;20079;-83
2022/06/10 07:52:05;;;;;;;15.32;6.57;;;16.30;99.90;;;;;;5054775;28;20101;-83
2022/06/10 07:54:31;;;;;;;16.08;7.18;;;16.30;99.90;;;;;;5055240;28;20540;-83
2022/06/10 07:56:57;;;;;;;15.98;6.50;;;16.40;99.90;;;;;;5038393;28;20051;-83
2022/06/10 07:59:22;;;;;;;15.55;7.63;;;16.50;99.90;;;;;;5054130;28;20417;-83
2022/06/10 08:01:48;;;;;;;13.18;6.60;;;16.60;99.90;;;;;;5072822;28;20700;-83
2022/06/10 08:04:14;;;;;;;13.05;6.70;;;16.60;99.90;;;;;;5054667;28;20037;-83
2022/06/10 08:06:43;;;;;;;13.60;6.97;;;16.70;99.90;;;;;;5054252;28;20037;-83
2022/06/10 08:09:09;;;;;;;14.05;7.22;;;16.80;99.90;;;;;;5054227;28;20041;-84
2022/06/10 08:11:36;;;;;;;13.27;6.32;;;16.80;99.90;;;;;;5054665;28;20124;-83
2022/06/10 08:14:03;;;;;;;15.80;6.70;;;16.80;99.90;;;;;;5054369;28;20041;-83
2022/06/10 08:16:28;;;;;;;14.70;6.05;;;16.90;99.90;;;;;;5054544;28;20044;-83
2022/06/10 08:18:54;;;;;;;15.82;6.90;;;16.80;99.90;;;;;;5054650;28;20405;-83
2022/06/10 08:24:06;;;;;;;14.02;6.47;;;16.80;99.90;;;;;;5054515;28;20040;-83
2022/06/10 08:26:31;;;;;;;13.65;6.40;;;16.80;99.90;;;;;;5054292;28;20638;-83
2022/06/10 08:28:58;;;;;;;15.65;6.43;;;16.80;99.90;;;;;;5053980;28;20036;-83
2022/06/10 08:31:24;;;;;;;13.95;5.97;;;16.90;99.90;;;;;;5037367;28;20076;-83
2022/06/10 08:33:50;;;;;;;16.67;6.65;;;16.90;99.90;;;;;;5054347;28;20076;-83
2022/06/10 08:36:15;;;;;;;13.35;6.57;;;16.90;99.90;;;;;;5037304;28;20040;-83
2022/06/10 08:38:42;;;;;;;13.93;6.75;;;16.90;99.90;;;;;;5054389;28;20098;-84
2022/06/10 08:41:25;;;;;;;13.18;5.60;;;17.00;99.90;;;;;;5053835;28;20044;-84
2022/06/10 08:44:02;;;;;;;14.90;7.20;;;17.00;99.90;;;;;;5053883;28;20083;-83
2022/06/10 08:47:07;;;;;;;13.00;6.65;;;17.10;99.90;;;;;;5053997;28;20032;-83
2022/06/10 08:49:42;;;;;;;14.18;5.95;;;17.20;99.90;;;;;;5061215;28;20691;-83
2022/06/10 08:52:19;;;;;;;14.02;6.70;;;17.30;99.90;;;;;;5060920;28;20044;-84
2022/06/10 08:55:09;;;;;;;12.30;6.40;;;17.40;99.90;;;;;;5043804;28;20037;-82
2022/06/10 08:57:40;;;;;;;12.35;5.80;;;17.40;99.90;;;;;;5061764;28;20387;-82
2022/06/10 09:00:15;;;;;;;12.95;5.63;;;17.40;99.90;;;;;;5034525;28;20051;-82
2022/06/10 09:02:56;;;;;;;15.15;6.40;;;17.50;99.90;;;;;;5057907;28;20032;-82
2022/06/10 09:05:25;;;;;;;12.60;6.20;;;17.50;99.90;;;;;;5043525;28;20048;-82
2022/06/10 09:07:58;;;;;;;13.85;6.50;;;17.60;99.90;;;;;;5043798;28;20044;-82
2022/06/10 09:10:38;;;;;;;15.52;7.30;;;17.60;99.90;;;;;;5033444;28;20139;-82
2022/06/10 09:13:33;;;;;;;13.50;6.53;;;17.70;99.90;;;;;;5053135;28;20450;-82
2022/06/10 09:16:16;;;;;;;20.85;7.38;;;17.70;99.90;;;;;;5024408;28;20052;-82
2022/06/10 09:18:48;;;;;;;15.35;6.40;;;17.70;99.90;;;;;;5052783;28;20047;-82
2022/06/10 09:21:37;;;;;;;13.80;6.43;;;17.70;99.90;;;;;;5036338;28;20127;-82
2022/06/10 09:24:25;;;;;;;14.38;5.78;;;17.80;99.90;;;;;;5053503;28;20033;-82
2022/06/10 09:27:07;;;;;;;14.00;6.10;;;17.80;99.90;;;;;;5053241;28;20040;-82
2022/06/10 09:29:36;;;;;;;14.07;5.55;;;17.90;99.90;;;;;;5053514;28;20038;-82
2022/06/10 09:32:34;;;;;;;14.23;6.07;;;17.80;99.90;;;;;;5053341;28;20498;-82
2022/06/10 09:35:15;;;;;;;13.30;5.63;;;17.80;99.90;;;;;;5053353;28;20080;-82
2022/06/10 09:37:51;;;;;;;14.45;5.88;;;17.80;99.90;;;;;;5057722;28;20049;-82
2022/06/10 09:40:38;;;;;;;12.60;5.80;;;17.80;99.90;;;;;;5033404;28;20393;-82
2022/06/10 09:43:15;;;;;;;14.65;5.60;;;17.80;99.90;;;;;;5016714;28;20037;-82
2022/06/10 09:46:15;;;;;;;18.70;5.30;;;17.80;99.90;;;;;;5033481;28;20124;-82
2022/06/10 09:48:46;;;;;;;12.95;4.78;;;17.80;99.90;;;;;;5032932;28;20095;-82
2022/06/10 09:51:27;;;;;;;12.45;4.38;;;17.90;99.90;;;;;;5016718;28;20099;-82
2022/06/10 09:54:21;;;;;;;13.73;4.97;;;17.90;99.90;;;;;;5033621;28;20048;-82
2022/06/10 09:57:05;;;;;;;12.55;4.43;;;17.90;99.90;;;;;;5029031;28;20114;-82
2022/06/10 09:59:41;;;;;;;15.20;5.05;;;18.00;99.90;;;;;;5013304;28;20041;-83
2022/06/10 10:02:37;;;;;;;12.73;4.38;;;18.10;99.90;;;;;;5017004;28;20624;-83
2022/06/10 10:05:16;;;;;;;15.73;4.53;;;18.10;99.90;;;;;;5033013;28;20108;-83
2022/06/10 10:07:49;;;;;;;15.40;4.53;;;18.10;99.90;;;;;;5033317;28;20118;-83
2022/06/10 10:10:25;;;;;;;12.93;4.43;;;18.10;99.90;;;;;;5032810;28;20037;-83
2022/06/10 10:13:00;;;;;;;13.35;4.57;;;18.20;99.90;;;;;;5016530;28;20037;-84
2022/06/10 10:15:37;;;;;;;11.43;4.40;;;18.20;99.90;;;;;;5016752;28;20083;-83
2022/06/10 10:18:22;;;;;;;12.40;4.53;;;18.30;99.90;;;;;;5033649;28;20124;-83
2022/06/10 10:21:13;;;;;;;13.57;4.70;;;18.40;99.90;;;;;;5033014;28;20037;-83
2022/06/10 10:23:46;;;;;;;13.38;4.47;;;18.60;99.90;;;;;;5032988;28;20056;-83
2022/06/10 10:26:39;;;;;;;15.63;4.32;;;18.80;99.90;;;;;;5041282;28;20061;-83
2022/06/10 10:29:12;;;;;;;15.43;4.30;;;19.00;99.90;;;;;;5052798;28;20044;-83
2022/06/10 10:31:44;;;;;;;14.55;4.85;;;19.10;99.90;;;;;;5056135;28;20032;-83
2022/06/10 10:34:19;;;;;;;11.40;4.38;;;19.30;99.90;;;;;;5044273;28;20075;-84
2022/06/10 10:36:49;;;;;;;12.10;5.00;;;19.50;99.90;;;;;;5047558;28;20096;-84
2022/06/10 10:39:34;;;;;;;13.60;5.60;;;19.60;99.90;;;;;;5062044;28;20044;-83
2022/06/10 10:42:04;;;;;;;12.50;5.22;;;19.80;99.90;;;;;;5036536;28;20041;-83
2022/06/10 10:44:44;;;;;;;15.98;6.00;;;19.80;99.90;;;;;;5036057;28;20041;-84
2022/06/10 10:47:10;;;;;;;13.30;5.75;;;19.90;99.90;;;;;;5065424;28;20401;-83
2022/06/10 10:49:47;;;;;;;12.75;6.22;;;20.00;99.90;;;;;;5069194;28;20523;-84
2022/06/10 10:52:27;;;;;;;14.10;5.80;;;20.10;99.90;;;;;;5061222;28;20098;-84
2022/06/10 10:55:03;;;;;;;15.15;6.10;;;20.20;99.90;;;;;;5055993;28;20052;-83
2022/06/10 10:57:37;;;;;;;15.93;6.47;;;20.20;99.90;;;;;;5055957;28;20135;-84
2022/06/10 11:00:11;;;;;;;13.10;5.57;;;20.40;99.90;;;;;;5055741;28;20044;-83
2022/06/10 11:02:50;;;;;;;12.70;6.30;;;20.40;99.90;;;;;;5055842;28;20044;-84
2022/06/10 11:05:15;;;;;;;15.73;6.65;;;20.40;99.90;;;;;;5056044;28;20048;-84
2022/06/10 11:07:42;;;;;;;12.13;5.38;;;20.40;99.90;;;;;;5055973;28;20493;-84
2022/06/10 11:10:22;;;;;;;14.00;5.25;;;20.40;99.90;;;;;;5038615;28;20033;-84
2022/06/10 11:12:48;;;;;;;12.43;4.53;;;20.60;99.90;;;;;;5063359;28;20436;-83
2022/06/10 11:15:28;;;;;;;13.23;4.63;;;20.70;99.90;;;;;;5075858;28;20040;-84
2022/06/10 11:17:56;;;;;;;15.55;4.68;;;20.80;99.90;;;;;;5058625;28;20042;-84
2022/06/10 11:20:36;;;;;;;10.98;3.72;;;20.80;99.90;;;;;;5075254;28;20040;-84
2022/06/10 11:23:25;;;;;;;11.07;3.70;;;20.80;99.90;;;;;;5059074;28;20040;-84
2022/06/10 11:26:12;;;;;;;12.70;4.30;;;20.80;99.90;;;;;;5052528;28;20047;-84
2022/06/10 11:28:41;;;;;;;13.50;4.30;;;20.90;99.90;;;;;;5048536;28;20075;-84
2022/06/10 11:31:26;;;;;;;12.88;4.43;;;20.90;99.90;;;;;;5034882;28;20024;-84
2022/06/10 11:33:56;;;;;;;13.45;4.32;;;21.00;99.90;;;;;;5017738;28;20037;-84
2022/06/10 11:36:27;;;;;;;11.52;4.15;;;21.10;99.90;;;;;;5062150;28;20488;-84
2022/06/10 11:39:23;;;;;;;14.20;4.10;;;21.30;99.90;;;;;;5038043;28;20263;-84
2022/06/10 11:42:00;;;;;;;13.52;4.25;;;21.40;99.90;;;;;;5052252;28;20032;-84
2022/06/10 11:44:30;;;;;;;12.27;4.13;;;21.50;99.90;;;;;;5038264;28;20045;-84
2022/06/10 11:47:09;;;;;;;13.27;4.20;;;21.50;99.90;;;;;;5053739;28;20406;-84
2022/06/10 11:49:46;;;;;;;12.88;4.00;;;21.60;99.90;;;;;;5037958;28;20055;-84
2022/06/10 11:52:25;;;;;;;11.75;4.13;;;21.70;99.90;;;;;;5054047;28;20159;-84
2022/06/10 11:55:14;;;;;;;9.57;3.63;;;21.80;99.90;;;;;;5034376;28;20040;-83
2022/06/10 12:01:14;;;;;;;11.55;3.90;;;21.60;99.90;;;;;;5043663;28;20049;-84
2022/06/10 12:03:46;;;;;;;9.55;3.65;;;21.50;99.90;;;;;;5059652;28;20052;-84
2022/06/10 12:06:22;;;;;;;10.75;3.50;;;21.40;99.90;;;;;;5034464;28;20196;-84
2022/06/10 12:09:09;;;;;;;10.93;3.65;;;21.40;99.90;;;;;;5027004;28;20033;-84
2022/06/10 12:12:01;;;;;;;13.20;3.92;;;21.40;99.90;;;;;;5044630;28;20093;-83
2022/06/10 12:14:40;;;;;;;10.55;3.47;;;21.30;99.90;;;;;;5043948;28;20087;-84
2022/06/10 12:17:27;;;;;;;10.40;3.55;;;21.20;99.90;;;;;;5043203;28;20497;-83
2022/06/10 12:20:32;;;;;;;12.40;4.13;;;21.10;99.90;;;;;;5049662;28;20102;-84
2022/06/10 12:23:05;;;;;;;11.00;3.25;;;21.10;99.90;;;;;;5028797;28;20048;-84
2022/06/10 12:26:04;;;;;;;11.10;3.70;;;21.10;99.90;;;;;;5053809;28;20397;-84
2022/06/10 12:28:33;;;;;;;11.68;4.07;;;21.20;99.90;;;;;;5041812;28;20048;-84
2022/06/10 12:31:10;;;;;;;11.90;3.47;;;21.30;99.90;;;;;;5049161;28;20071;-84
2022/06/10 12:33:43;;;;;;;10.93;4.00;;;21.40;99.90;;;;;;5050875;28;20478;-83
2022/06/10 12:36:18;;;;;;;;;;;21.40;99.90;;;;;;5031880;28;20693;-83
2022/06/10 12:38:45;;;;;;;12.98;4.05;;;21.40;99.90;;;;;;5051978;28;19974;-83
2022/06/10 12:41:18;;;;;;;12.73;3.67;;;21.40;99.90;;;;;;5048711;28;20036;-83
2022/06/10 12:43:50;;;;;;;10.80;3.22;;;21.40;99.90;;;;;;5033874;28;20170;-83
2022/06/10 12:46:37;;;;;;;15.32;3.88;;;21.30;99.90;;;;;;5032154;28;20041;-83
2022/06/10 12:49:40;;;;;;;13.02;3.92;;;21.30;99.90;;;;;;5047809;28;20036;-83
2022/06/10 12:52:24;;;;;;;;;;;21.20;99.90;;;;;;5025222;28;20045;-84
2022/06/10 12:55:04;;;;;;;11.48;3.55;;;21.10;99.90;;;;;;5027726;28;20369;-83
2022/06/10 12:57:39;;;;;;;12.20;3.92;;;21.20;99.90;;;;;;5036351;28;20041;-83
2022/06/10 13:00:33;;;;;;;11.40;3.95;;;21.30;99.90;;;;;;5035014;28;20040;-83
2022/06/10 13:03:11;;;;;;;14.27;3.45;;;21.50;99.90;;;;;;5035748;28;20055;-83
2022/06/10 13:05:37;;;;;;;10.50;3.55;;;21.50;99.90;;;;;;5052526;28;20041;-83
2022/06/10 13:08:32;;;;;;;10.63;3.28;;;21.50;99.90;;;;;;5052493;28;20127;-84
2022/06/10 13:10:58;;;;;;;10.45;3.20;;;21.50;99.90;;;;;;5035471;28;20040;-83
2022/06/10 13:13:25;;;;;;;11.68;3.20;;;21.50;99.90;;;;;;5035753;28;20043;-83
2022/06/10 13:15:53;;;;;;;12.10;3.50;;;21.50;99.90;;;;;;5052377;28;20040;-83
2022/06/10 13:18:29;;;;;;;14.32;3.70;;;21.50;99.90;;;;;;5051836;28;20120;-83
2022/06/10 13:20:55;;;;;;;11.20;3.28;;;21.60;99.90;;;;;;5052798;28;20032;-83
2022/06/10 13:23:26;;;;;;;11.90;3.40;;;21.60;99.90;;;;;;5034764;28;20520;-83
2022/06/10 13:26:04;;;;;;;10.30;3.38;;;21.60;99.90;;;;;;5036361;28;20045;-83